createdAt,value
2019-03-19T00:00:23.711Z,7.29
2019-03-19T00:01:23.727Z,7.33
2019-03-19T00:02:23.737Z,7.29
2019-03-19T00:03:23.758Z,7.25
2019-03-19T00:04:23.772Z,7.25
2019-03-19T00:05:23.531Z,7.31
2019-03-19T00:06:23.807Z,7.18
2019-03-19T00:07:23.825Z,7.18
2019-03-19T00:08:24.106Z,7.33
2019-03-19T00:09:23.857Z,7.35
2019-03-19T00:10:24.136Z,7.14
2019-03-19T00:11:23.901Z,7.15
2019-03-19T00:12:24.170Z,7.15
2019-03-19T00:13:23.925Z,7.15
2019-03-19T00:14:23.942Z,7.17
2019-03-19T00:15:23.958Z,7.18
2019-03-19T00:16:23.711Z,7.24
2019-03-19T00:17:23.728Z,7.18
2019-03-19T00:18:24.321Z,7.18
2019-03-19T00:19:25.087Z,7.21
2019-03-19T00:20:24.043Z,7.17
2019-03-19T00:21:24.064Z,7.24
2019-03-19T00:22:25.731Z,7.18
2019-03-19T00:23:23.826Z,7.21
2019-03-19T00:24:24.372Z,7.14
2019-03-19T00:25:34.263Z,7.03
2019-03-19T00:26:24.143Z,7.18
2019-03-19T00:27:24.425Z,7.21
2019-03-19T00:28:23.909Z,7.03
2019-03-19T00:29:24.197Z,7.06
2019-03-19T00:30:23.949Z,7.05
2019-03-19T00:31:24.493Z,7.02
2019-03-19T00:32:24.567Z,7.03
2019-03-19T00:33:23.999Z,7.03
2019-03-19T00:34:24.539Z,7.06
2019-03-19T00:35:24.028Z,7.03
2019-03-19T00:36:24.046Z,7.02
2019-03-19T00:37:24.324Z,7
2019-03-19T00:38:24.394Z,7.06
2019-03-19T00:39:24.366Z,6.99
2019-03-19T00:40:24.382Z,7.11
2019-03-19T00:41:24.399Z,7.14
2019-03-19T00:42:24.144Z,6.99
2019-03-19T00:43:24.162Z,7.14
2019-03-19T00:44:24.442Z,7.06
2019-03-19T00:45:24.457Z,7
2019-03-19T00:46:24.476Z,7.03
2019-03-19T00:47:24.493Z,7.06
2019-03-19T00:48:24.510Z,7.03
2019-03-19T00:49:24.526Z,7.07
2019-03-19T00:50:24.304Z,6.93
2019-03-19T00:51:24.554Z,7.05
2019-03-19T00:52:24.574Z,6.96
2019-03-19T00:53:24.332Z,6.96
2019-03-19T00:54:24.615Z,6.95
2019-03-19T00:55:24.891Z,6.95
2019-03-19T00:56:24.378Z,7
2019-03-19T00:57:24.664Z,6.96
2019-03-19T00:58:24.417Z,6.97
2019-03-19T00:59:24.690Z,7
2019-03-19T01:00:24.972Z,6.97
2019-03-19T01:01:24.461Z,6.96
2019-03-19T01:02:24.738Z,6.89
2019-03-19T01:03:25.029Z,6.92
2019-03-19T01:04:24.772Z,6.93
2019-03-19T01:05:24.528Z,6.99
2019-03-19T01:06:24.542Z,6.84
2019-03-19T01:07:24.824Z,6.96
2019-03-19T01:08:24.839Z,6.88
2019-03-19T01:09:24.860Z,6.92
2019-03-19T01:10:24.876Z,6.96
2019-03-19T01:11:24.624Z,6.99
2019-03-19T01:12:24.910Z,6.88
2019-03-19T01:13:25.186Z,7.02
2019-03-19T01:14:24.937Z,6.96
2019-03-19T01:15:24.692Z,6.96
2019-03-19T01:16:25.235Z,6.96
2019-03-19T01:17:24.989Z,6.88
2019-03-19T01:18:25.006Z,6.87
2019-03-19T01:19:24.768Z,6.89
2019-03-19T01:20:25.349Z,6.92
2019-03-19T01:21:25.314Z,6.87
2019-03-19T01:22:25.072Z,6.89
2019-03-19T01:23:25.086Z,6.74
2019-03-19T01:24:25.106Z,6.78
2019-03-19T01:25:25.254Z,6.87
2019-03-19T01:26:25.136Z,6.85
2019-03-19T01:27:24.888Z,6.78
2019-03-19T01:28:25.431Z,6.84
2019-03-19T01:29:25.191Z,6.79
2019-03-19T01:30:25.207Z,6.84
2019-03-19T01:31:25.217Z,6.81
2019-03-19T01:32:24.975Z,6.82
2019-03-19T01:33:25.258Z,6.81
2019-03-19T01:34:25.532Z,6.85
2019-03-19T01:35:25.293Z,6.82
2019-03-19T01:36:25.038Z,6.78
2019-03-19T01:37:25.319Z,6.75
2019-03-19T01:38:25.338Z,6.77
2019-03-19T01:39:25.615Z,6.72
2019-03-19T01:40:25.628Z,6.69
2019-03-19T01:41:25.387Z,6.69
2019-03-19T01:42:25.400Z,6.75
2019-03-19T01:43:25.419Z,6.64
2019-03-19T01:44:25.697Z,6.75
2019-03-19T01:45:25.448Z,6.66
2019-03-19T01:46:25.570Z,6.67
2019-03-19T01:47:25.220Z,6.75
2019-03-19T01:48:25.499Z,6.69
2019-03-19T01:49:25.520Z,6.69
2019-03-19T01:50:25.796Z,6.69
2019-03-19T01:51:25.557Z,6.69
2019-03-19T01:52:25.301Z,6.74
2019-03-19T01:53:25.595Z,6.72
2019-03-19T01:54:25.596Z,6.63
2019-03-19T01:55:27.806Z,6.69
2019-03-19T01:56:25.895Z,6.64
2019-03-19T01:57:25.708Z,6.69
2019-03-19T01:58:25.926Z,6.64
2019-03-19T01:59:25.684Z,6.6
2019-03-19T02:00:25.445Z,6.6
2019-03-19T02:01:25.555Z,6.59
2019-03-19T02:02:25.731Z,6.62
2019-03-19T02:03:25.747Z,6.6
2019-03-19T02:04:26.029Z,6.64
2019-03-19T02:05:26.048Z,6.6
2019-03-19T02:06:26.075Z,6.62
2019-03-19T02:07:25.813Z,6.6
2019-03-19T02:08:26.109Z,6.49
2019-03-19T02:09:25.847Z,6.56
2019-03-19T02:10:25.864Z,6.49
2019-03-19T02:11:25.877Z,6.54
2019-03-19T02:12:26.158Z,6.51
2019-03-19T02:13:25.909Z,6.54
2019-03-19T02:14:25.680Z,6.57
2019-03-19T02:15:25.949Z,6.39
2019-03-19T02:16:25.960Z,6.45
2019-03-19T02:17:25.718Z,6.48
2019-03-19T02:18:25.994Z,6.42
2019-03-19T02:19:26.015Z,6.51
2019-03-19T02:20:26.291Z,6.44
2019-03-19T02:21:26.052Z,6.54
2019-03-19T02:22:26.060Z,6.46
2019-03-19T02:23:26.077Z,6.45
2019-03-19T02:24:26.100Z,6.42
2019-03-19T02:25:26.120Z,6.46
2019-03-19T02:26:26.137Z,6.49
2019-03-19T02:27:25.877Z,6.44
2019-03-19T02:28:26.421Z,6.51
2019-03-19T02:29:25.918Z,6.51
2019-03-19T02:30:26.049Z,6.44
2019-03-19T02:31:25.977Z,6.45
2019-03-19T02:32:26.231Z,6.44
2019-03-19T02:33:25.989Z,6.49
2019-03-19T02:34:26.008Z,6.46
2019-03-19T02:35:26.309Z,6.39
2019-03-19T02:36:26.036Z,6.45
2019-03-19T02:37:26.044Z,6.42
2019-03-19T02:38:26.345Z,6.31
2019-03-19T02:39:26.079Z,6.42
2019-03-19T02:40:26.367Z,6.42
2019-03-19T02:41:26.380Z,6.38
2019-03-19T02:42:26.395Z,6.35
2019-03-19T02:43:27.692Z,6.42
2019-03-19T02:44:26.694Z,6.38
2019-03-19T02:45:26.469Z,6.33
2019-03-19T02:46:26.498Z,6.36
2019-03-19T02:47:26.787Z,6.42
2019-03-19T02:48:26.233Z,6.31
2019-03-19T02:49:26.511Z,6.33
2019-03-19T02:50:26.524Z,6.31
2019-03-19T02:51:26.543Z,6.35
2019-03-19T02:52:26.306Z,6.33
2019-03-19T02:53:29.432Z,6.3
2019-03-19T02:54:26.323Z,6.3
2019-03-19T02:55:26.872Z,6.26
2019-03-19T02:56:37.875Z,6.28
2019-03-19T02:57:26.646Z,6.3
2019-03-19T02:58:26.904Z,6.24
2019-03-19T02:59:26.411Z,6.31
2019-03-19T03:00:26.428Z,6.26
2019-03-19T03:01:26.693Z,6.22
2019-03-19T03:02:26.476Z,6.31
2019-03-19T03:03:26.745Z,6.31
2019-03-19T03:04:26.827Z,6.27
2019-03-19T03:05:26.806Z,6.31
2019-03-19T03:06:26.510Z,6.27
2019-03-19T03:07:26.799Z,6.3
2019-03-19T03:08:26.584Z,6.3
2019-03-19T03:09:27.148Z,6.27
2019-03-19T03:10:26.844Z,6.17
2019-03-19T03:11:27.115Z,6.16
2019-03-19T03:12:26.621Z,6.14
2019-03-19T03:13:26.892Z,6.24
2019-03-19T03:14:26.901Z,6.12
2019-03-19T03:15:26.675Z,6.12
2019-03-19T03:16:26.944Z,6.07
2019-03-19T03:17:26.961Z,6.16
2019-03-19T03:18:26.992Z,6.14
2019-03-19T03:19:26.722Z,6.2
2019-03-19T03:20:26.735Z,6.09
2019-03-19T03:21:27.030Z,6.01
2019-03-19T03:22:27.300Z,6.08
2019-03-19T03:23:27.061Z,6.16
2019-03-19T03:24:27.346Z,6.12
2019-03-19T03:25:27.080Z,6.11
2019-03-19T03:26:27.097Z,6.07
2019-03-19T03:27:26.888Z,6.04
2019-03-19T03:28:27.433Z,6.12
2019-03-19T03:29:27.442Z,6.08
2019-03-19T03:30:27.290Z,6.02
2019-03-19T03:31:26.928Z,6.14
2019-03-19T03:32:27.208Z,5.99
2019-03-19T03:33:27.507Z,5.98
2019-03-19T03:34:27.260Z,5.98
2019-03-19T03:35:27.285Z,5.99
2019-03-19T03:36:27.304Z,6.04
2019-03-19T03:37:27.276Z,5.98
2019-03-19T03:38:27.561Z,5.99
2019-03-19T03:39:27.636Z,6.01
2019-03-19T03:40:27.352Z,6.01
2019-03-19T03:41:27.340Z,5.99
2019-03-19T03:42:27.684Z,6.01
2019-03-19T03:43:27.372Z,6.02
2019-03-19T03:44:27.673Z,5.94
2019-03-19T03:45:27.407Z,5.98
2019-03-19T03:46:27.157Z,6.01
2019-03-19T03:47:27.175Z,6.04
2019-03-19T03:48:27.467Z,5.9
2019-03-19T03:49:27.483Z,5.86
2019-03-19T03:50:27.628Z,5.89
2019-03-19T03:51:27.500Z,5.98
2019-03-19T03:52:27.774Z,5.93
2019-03-19T03:53:27.534Z,5.89
2019-03-19T03:54:27.308Z,5.9
2019-03-19T03:55:30.933Z,5.93
2019-03-19T03:56:27.845Z,5.89
2019-03-19T03:57:27.335Z,5.89
2019-03-19T03:58:27.613Z,5.9
2019-03-19T03:59:27.629Z,5.93
2019-03-19T04:00:27.410Z,5.89
2019-03-19T04:01:27.664Z,5.91
2019-03-19T04:02:27.945Z,5.87
2019-03-19T04:03:27.725Z,5.93
2019-03-19T04:04:27.714Z,5.89
2019-03-19T04:05:28.004Z,5.86
2019-03-19T04:06:27.736Z,5.89
2019-03-19T04:07:27.752Z,5.89
2019-03-19T04:08:27.783Z,5.84
2019-03-19T04:09:27.532Z,5.9
2019-03-19T04:10:27.817Z,5.98
2019-03-19T04:11:27.560Z,5.97
2019-03-19T04:12:27.632Z,5.86
2019-03-19T04:13:27.588Z,5.93
2019-03-19T04:14:27.865Z,5.84
2019-03-19T04:15:27.899Z,5.91
2019-03-19T04:16:28.165Z,5.94
2019-03-19T04:17:27.910Z,5.91
2019-03-19T04:18:27.667Z,5.93
2019-03-19T04:19:27.948Z,5.87
2019-03-19T04:20:28.310Z,5.91
2019-03-19T04:21:27.991Z,5.86
2019-03-19T04:22:28.004Z,5.86
2019-03-19T04:23:28.026Z,5.94
2019-03-19T04:24:28.023Z,6.01
2019-03-19T04:25:27.781Z,5.86
2019-03-19T04:26:28.075Z,6.04
2019-03-19T04:27:28.333Z,5.94
2019-03-19T04:28:28.089Z,5.97
2019-03-19T04:29:28.105Z,5.91
2019-03-19T04:30:28.129Z,5.91
2019-03-19T04:31:28.139Z,5.98
2019-03-19T04:32:28.426Z,5.9
2019-03-19T04:33:28.177Z,5.98
2019-03-19T04:34:27.924Z,5.99
2019-03-19T04:35:27.941Z,6.01
2019-03-19T04:36:27.953Z,6.05
2019-03-19T04:37:27.976Z,5.98
2019-03-19T04:38:28.535Z,6.05
2019-03-19T04:39:28.284Z,5.94
2019-03-19T04:40:28.025Z,5.94
2019-03-19T04:41:28.310Z,5.99
2019-03-19T04:42:28.322Z,5.98
2019-03-19T04:43:28.642Z,6.04
2019-03-19T04:44:28.351Z,5.98
2019-03-19T04:45:28.095Z,6.04
2019-03-19T04:46:28.374Z,5.97
2019-03-19T04:47:28.654Z,5.98
2019-03-19T04:48:28.428Z,5.98
2019-03-19T04:49:28.434Z,6.02
2019-03-19T04:50:28.439Z,5.99
2019-03-19T04:51:28.193Z,5.98
2019-03-19T04:52:28.473Z,6.07
2019-03-19T04:53:29.311Z,6.02
2019-03-19T04:54:28.501Z,6.04
2019-03-19T04:55:28.257Z,6.08
2019-03-19T04:56:28.539Z,6.08
2019-03-19T04:57:31.793Z,6.09
2019-03-19T04:58:28.567Z,6.02
2019-03-19T04:59:28.626Z,6.14
2019-03-19T05:00:28.342Z,6.07
2019-03-19T05:01:28.625Z,6.07
2019-03-19T05:02:28.368Z,6.08
2019-03-19T05:03:28.648Z,6.12
2019-03-19T05:04:28.930Z,6.09
2019-03-19T05:05:28.694Z,6.04
2019-03-19T05:06:28.702Z,6.07
2019-03-19T05:07:28.727Z,6.04
2019-03-19T05:08:28.999Z,6.16
2019-03-19T05:09:28.750Z,6.14
2019-03-19T05:10:28.766Z,6.08
2019-03-19T05:11:28.518Z,6.12
2019-03-19T05:12:28.796Z,6.04
2019-03-19T05:13:29.096Z,6.17
2019-03-19T05:14:28.839Z,6.05
2019-03-19T05:15:28.588Z,6.08
2019-03-19T05:16:28.598Z,6.08
2019-03-19T05:17:29.147Z,6.17
2019-03-19T05:18:31.119Z,6.14
2019-03-19T05:19:28.644Z,6.16
2019-03-19T05:20:28.660Z,6.16
2019-03-19T05:21:29.248Z,6.16
2019-03-19T05:22:29.223Z,6.08
2019-03-19T05:23:28.973Z,6.17
2019-03-19T05:24:29.259Z,6.09
2019-03-19T05:25:29.281Z,6.05
2019-03-19T05:26:29.336Z,6.09
2019-03-19T05:27:39.430Z,6.14
2019-03-19T05:28:28.817Z,6.12
2019-03-19T05:29:28.806Z,6.16
2019-03-19T05:30:28.826Z,6.07
2019-03-19T05:31:28.838Z,6.16
2019-03-19T05:32:28.856Z,6.11
2019-03-19T05:33:29.138Z,6.16
2019-03-19T05:34:29.425Z,6.12
2019-03-19T05:35:29.184Z,6.09
2019-03-19T05:36:28.926Z,6.14
2019-03-19T05:37:29.468Z,6.12
2019-03-19T05:38:29.224Z,6.02
2019-03-19T05:39:28.969Z,6.07
2019-03-19T05:40:29.252Z,6.09
2019-03-19T05:41:29.534Z,6.14
2019-03-19T05:42:29.285Z,6.2
2019-03-19T05:43:29.032Z,6.14
2019-03-19T05:44:29.052Z,6.11
2019-03-19T05:45:29.072Z,6.14
2019-03-19T05:46:29.086Z,6.14
2019-03-19T05:47:40.584Z,6.17
2019-03-19T05:48:29.383Z,6.22
2019-03-19T05:49:29.391Z,6.12
2019-03-19T05:50:29.150Z,6.14
2019-03-19T05:51:29.170Z,6.14
2019-03-19T05:52:29.445Z,6.16
2019-03-19T05:53:29.200Z,6.27
2019-03-19T05:54:29.490Z,6.17
2019-03-19T05:55:29.493Z,6.22
2019-03-19T05:56:29.776Z,6.3
2019-03-19T05:57:29.524Z,6.2
2019-03-19T05:58:29.541Z,6.26
2019-03-19T05:59:29.298Z,6.19
2019-03-19T06:00:29.315Z,6.24
2019-03-19T06:01:29.596Z,6.26
2019-03-19T06:02:29.344Z,6.22
2019-03-19T06:03:29.364Z,6.28
2019-03-19T06:04:29.639Z,6.3
2019-03-19T06:05:29.657Z,6.2
2019-03-19T06:06:29.681Z,6.3
2019-03-19T06:07:29.956Z,6.27
2019-03-19T06:08:29.967Z,6.27
2019-03-19T06:09:29.462Z,6.19
2019-03-19T06:10:30.773Z,6.24
2019-03-19T06:11:29.490Z,6.3
2019-03-19T06:12:29.773Z,6.27
2019-03-19T06:13:29.785Z,6.24
2019-03-19T06:14:29.805Z,6.26
2019-03-19T06:15:29.559Z,6.26
2019-03-19T06:16:29.842Z,6.3
2019-03-19T06:17:30.117Z,6.33
2019-03-19T06:18:39.447Z,6.3
2019-03-19T06:19:29.623Z,6.3
2019-03-19T06:20:29.913Z,6.33
2019-03-19T06:21:29.924Z,6.35
2019-03-19T06:22:29.938Z,6.41
2019-03-19T06:23:29.951Z,6.42
2019-03-19T06:24:29.706Z,6.42
2019-03-19T06:25:30.025Z,6.38
2019-03-19T06:26:30.267Z,6.39
2019-03-19T06:27:30.016Z,6.39
2019-03-19T06:28:30.031Z,6.39
2019-03-19T06:29:29.808Z,6.41
2019-03-19T06:30:29.809Z,6.38
2019-03-19T06:31:30.132Z,6.36
2019-03-19T06:32:30.100Z,6.36
2019-03-19T06:33:30.117Z,6.44
2019-03-19T06:34:30.159Z,6.36
2019-03-19T06:35:30.147Z,6.41
2019-03-19T06:36:29.902Z,6.44
2019-03-19T06:37:30.448Z,6.44
2019-03-19T06:38:30.202Z,6.42
2019-03-19T06:39:30.214Z,6.46
2019-03-19T06:40:29.966Z,6.49
2019-03-19T06:41:30.246Z,6.44
2019-03-19T06:42:30.085Z,6.51
2019-03-19T06:43:30.045Z,6.56
2019-03-19T06:44:30.299Z,6.46
2019-03-19T06:45:30.052Z,6.49
2019-03-19T06:46:30.082Z,6.48
2019-03-19T06:47:30.606Z,6.46
2019-03-19T06:48:30.631Z,6.48
2019-03-19T06:49:30.380Z,6.45
2019-03-19T06:50:32.798Z,6.44
2019-03-19T06:51:30.421Z,6.48
2019-03-19T06:52:30.432Z,6.56
2019-03-19T06:53:30.447Z,6.41
2019-03-19T06:54:30.198Z,6.52
2019-03-19T06:55:30.491Z,6.48
2019-03-19T06:56:30.762Z,6.48
2019-03-19T06:57:41.078Z,6.54
2019-03-19T06:58:30.793Z,6.49
2019-03-19T06:59:30.815Z,6.52
2019-03-19T07:00:30.345Z,6.63
2019-03-19T07:01:30.579Z,6.6
2019-03-19T07:02:30.602Z,6.62
2019-03-19T07:03:30.350Z,6.59
2019-03-19T07:04:30.687Z,6.62
2019-03-19T07:05:30.647Z,6.62
2019-03-19T07:06:30.663Z,6.62
2019-03-19T07:07:30.971Z,6.64
2019-03-19T07:08:30.696Z,6.62
2019-03-19T07:09:30.710Z,6.63
2019-03-19T07:10:30.723Z,6.57
2019-03-19T07:11:30.741Z,6.69
2019-03-19T07:12:30.500Z,6.7
2019-03-19T07:13:30.776Z,6.75
2019-03-19T07:14:30.535Z,6.66
2019-03-19T07:15:30.553Z,6.66
2019-03-19T07:16:30.574Z,6.66
2019-03-19T07:17:30.594Z,6.66
2019-03-19T07:18:30.600Z,6.69
2019-03-19T07:19:31.147Z,6.64
2019-03-19T07:20:31.159Z,6.67
2019-03-19T07:21:30.928Z,6.72
2019-03-19T07:22:30.929Z,6.7
2019-03-19T07:23:30.945Z,6.78
2019-03-19T07:24:30.965Z,6.7
2019-03-19T07:25:31.261Z,6.85
2019-03-19T07:26:30.995Z,6.85
2019-03-19T07:27:31.010Z,6.75
2019-03-19T07:28:31.293Z,6.77
2019-03-19T07:29:30.781Z,6.81
2019-03-19T07:30:30.804Z,6.87
2019-03-19T07:31:35.647Z,6.81
2019-03-19T07:32:30.830Z,6.89
2019-03-19T07:33:31.376Z,6.92
2019-03-19T07:34:31.124Z,6.95
2019-03-19T07:35:30.893Z,6.96
2019-03-19T07:36:31.160Z,6.88
2019-03-19T07:37:30.916Z,6.93
2019-03-19T07:38:33.453Z,6.95
2019-03-19T07:39:31.265Z,6.93
2019-03-19T07:40:31.230Z,6.89
2019-03-19T07:41:31.256Z,6.97
2019-03-19T07:42:31.262Z,6.99
2019-03-19T07:43:31.280Z,6.92
2019-03-19T07:44:31.297Z,6.89
2019-03-19T07:45:31.316Z,6.95
2019-03-19T07:46:31.091Z,7.02
2019-03-19T07:47:31.657Z,7.07
2019-03-19T07:48:31.367Z,7.07
2019-03-19T07:49:31.639Z,7.03
2019-03-19T07:50:31.139Z,7.11
2019-03-19T07:51:31.676Z,7.07
2019-03-19T07:52:31.167Z,7.07
2019-03-19T07:53:31.704Z,7.07
2019-03-19T07:54:31.195Z,7.05
2019-03-19T07:55:31.475Z,7.07
2019-03-19T07:56:31.503Z,7.06
2019-03-19T07:57:34.072Z,7.05
2019-03-19T07:58:47.713Z,7.11
2019-03-19T07:59:31.282Z,7.05
2019-03-19T08:00:31.317Z,7.07
2019-03-19T08:01:31.579Z,7.07
2019-03-19T08:02:31.854Z,7.28
2019-03-19T08:03:31.612Z,7.05
2019-03-19T08:04:31.630Z,7.18
2019-03-19T08:05:38.024Z,7.2
2019-03-19T08:06:32.711Z,7.23
2019-03-19T08:07:31.945Z,7.23
2019-03-19T08:08:31.433Z,7.07
2019-03-19T08:09:31.871Z,7.15
2019-03-19T08:10:31.998Z,7.15
2019-03-19T08:11:31.751Z,7.31
2019-03-19T08:12:33.617Z,7.2
2019-03-19T08:13:32.046Z,7.28
2019-03-19T08:14:31.801Z,7.31
2019-03-19T08:15:31.557Z,7.25
2019-03-19T08:16:32.445Z,7.29
2019-03-19T08:17:31.591Z,7.31
2019-03-19T08:18:31.602Z,7.33
2019-03-19T08:19:31.623Z,7.29
2019-03-19T08:20:32.175Z,7.31
2019-03-19T08:21:31.917Z,7.28
2019-03-19T08:22:31.677Z,7.31
2019-03-19T08:23:31.957Z,7.29
2019-03-19T08:24:31.704Z,7.4
2019-03-19T08:25:31.744Z,7.4
2019-03-19T08:26:32.265Z,7.4
2019-03-19T08:27:32.019Z,7.39
2019-03-19T08:28:33.689Z,7.47
2019-03-19T08:29:32.054Z,7.54
2019-03-19T08:30:31.821Z,7.43
2019-03-19T08:31:32.095Z,7.51
2019-03-19T08:32:32.480Z,7.51
2019-03-19T08:33:32.122Z,7.42
2019-03-19T08:34:32.402Z,7.5
2019-03-19T08:35:32.418Z,7.47
2019-03-19T08:36:31.916Z,7.56
2019-03-19T08:37:31.928Z,7.51
2019-03-19T08:38:31.942Z,7.54
2019-03-19T08:39:32.225Z,7.61
2019-03-19T08:40:32.503Z,7.5
2019-03-19T08:41:31.995Z,7.6
2019-03-19T08:42:32.278Z,7.6
2019-03-19T08:43:32.297Z,7.63
2019-03-19T08:44:32.530Z,7.57
2019-03-19T08:45:32.118Z,7.6
2019-03-19T08:46:32.348Z,7.69
2019-03-19T08:47:32.366Z,7.6
2019-03-19T08:48:32.378Z,7.6
2019-03-19T08:49:32.394Z,7.67
2019-03-19T08:50:32.416Z,7.63
2019-03-19T08:51:32.426Z,7.72
2019-03-19T08:52:32.448Z,7.76
2019-03-19T08:53:32.199Z,7.67
2019-03-19T08:54:32.599Z,7.75
2019-03-19T08:55:32.238Z,7.8
2019-03-19T08:56:32.775Z,7.82
2019-03-19T08:57:32.796Z,7.75
2019-03-19T08:58:32.812Z,7.79
2019-03-19T08:59:32.610Z,7.8
2019-03-19T09:00:32.590Z,7.83
2019-03-19T09:01:32.873Z,7.88
2019-03-19T09:02:32.619Z,7.8
2019-03-19T09:03:32.644Z,7.8
2019-03-19T09:04:32.652Z,7.82
2019-03-19T09:05:32.675Z,7.9
2019-03-19T09:06:32.421Z,7.98
2019-03-19T09:07:32.702Z,7.88
2019-03-19T09:08:32.458Z,7.97
2019-03-19T09:09:32.737Z,7.98
2019-03-19T09:10:32.758Z,7.98
2019-03-19T09:11:32.510Z,7.94
2019-03-19T09:12:32.530Z,8.01
2019-03-19T09:13:32.812Z,7.94
2019-03-19T09:14:32.826Z,7.93
2019-03-19T09:15:32.848Z,8
2019-03-19T09:16:32.862Z,8.06
2019-03-19T09:17:32.887Z,8.06
2019-03-19T09:18:32.629Z,8.06
2019-03-19T09:19:33.170Z,8.01
2019-03-19T09:20:33.194Z,8.01
2019-03-19T09:21:32.950Z,8.09
2019-03-19T09:22:34.523Z,8.08
2019-03-19T09:23:33.355Z,8.08
2019-03-19T09:24:33.002Z,8.08
2019-03-19T09:25:32.752Z,8.13
2019-03-19T09:26:33.071Z,8.08
2019-03-19T09:27:33.047Z,8.06
2019-03-19T09:28:32.815Z,8
2019-03-19T09:29:33.084Z,8.13
2019-03-19T09:30:33.113Z,8.12
2019-03-19T09:31:33.391Z,8.1
2019-03-19T09:32:33.401Z,8.12
2019-03-19T09:33:32.893Z,8.05
2019-03-19T09:34:32.909Z,8.06
2019-03-19T09:35:32.931Z,8.09
2019-03-19T09:36:33.206Z,8.08
2019-03-19T09:37:33.227Z,8.12
2019-03-19T09:38:33.501Z,8.19
2019-03-19T09:39:33.525Z,8.18
2019-03-19T09:40:33.539Z,8.2
2019-03-19T09:41:33.034Z,8.19
2019-03-19T09:42:33.311Z,8.24
2019-03-19T09:43:33.066Z,8.23
2019-03-19T09:44:33.347Z,8.28
2019-03-19T09:45:33.366Z,8.27
2019-03-19T09:46:33.382Z,8.26
2019-03-19T09:47:33.402Z,8.31
2019-03-19T09:48:33.159Z,8.34
2019-03-19T09:49:33.170Z,8.38
2019-03-19T09:50:33.457Z,8.36
2019-03-19T09:51:33.467Z,8.36
2019-03-19T09:52:33.487Z,8.33
2019-03-19T09:53:33.510Z,8.37
2019-03-19T09:54:34.499Z,8.37
2019-03-19T09:55:33.538Z,8.45
2019-03-19T09:56:33.558Z,8.36
2019-03-19T09:57:33.311Z,8.38
2019-03-19T09:58:33.328Z,8.45
2019-03-19T09:59:33.872Z,8.36
2019-03-19T10:00:33.890Z,8.37
2019-03-19T10:01:33.379Z,8.45
2019-03-19T10:02:33.926Z,8.37
2019-03-19T10:03:33.686Z,8.51
2019-03-19T10:04:33.694Z,8.52
2019-03-19T10:05:33.976Z,8.48
2019-03-19T10:06:33.730Z,8.49
2019-03-19T10:07:33.485Z,8.53
2019-03-19T10:08:33.560Z,8.41
2019-03-19T10:09:33.784Z,8.46
2019-03-19T10:10:34.173Z,8.49
2019-03-19T10:11:33.818Z,8.48
2019-03-19T10:12:33.839Z,8.45
2019-03-19T10:13:33.593Z,8.48
2019-03-19T10:14:33.877Z,8.58
2019-03-19T10:15:34.148Z,8.52
2019-03-19T10:16:33.905Z,8.42
2019-03-19T10:17:33.665Z,8.51
2019-03-19T10:18:33.950Z,8.49
2019-03-19T10:19:33.694Z,8.48
2019-03-19T10:20:33.980Z,8.48
2019-03-19T10:21:33.734Z,8.44
2019-03-19T10:22:33.758Z,8.46
2019-03-19T10:23:34.060Z,8.61
2019-03-19T10:24:34.319Z,8.52
2019-03-19T10:25:34.083Z,8.61
2019-03-19T10:26:34.346Z,8.56
2019-03-19T10:27:33.840Z,8.51
2019-03-19T10:28:33.857Z,8.52
2019-03-19T10:29:42.654Z,8.61
2019-03-19T10:30:34.155Z,8.52
2019-03-19T10:31:34.171Z,8.55
2019-03-19T10:32:34.189Z,8.55
2019-03-19T10:33:34.213Z,8.63
2019-03-19T10:34:34.228Z,8.56
2019-03-19T10:35:33.978Z,8.52
2019-03-19T10:36:34.258Z,8.56
2019-03-19T10:37:34.014Z,8.52
2019-03-19T10:38:34.554Z,8.61
2019-03-19T10:39:34.314Z,8.66
2019-03-19T10:40:34.334Z,8.52
2019-03-19T10:41:34.366Z,8.55
2019-03-19T10:42:34.368Z,8.53
2019-03-19T10:43:34.124Z,8.53
2019-03-19T10:44:34.407Z,8.53
2019-03-19T10:45:34.678Z,8.53
2019-03-19T10:46:34.197Z,8.64
2019-03-19T10:47:34.455Z,8.51
2019-03-19T10:48:34.480Z,8.53
2019-03-19T10:49:34.224Z,8.58
2019-03-19T10:50:34.507Z,8.48
2019-03-19T10:51:35.229Z,8.52
2019-03-19T10:52:34.545Z,8.49
2019-03-19T10:53:34.564Z,8.6
2019-03-19T10:54:34.582Z,8.58
2019-03-19T10:55:34.857Z,8.61
2019-03-19T10:56:34.349Z,8.64
2019-03-19T10:57:34.647Z,8.53
2019-03-19T10:58:34.908Z,8.61
2019-03-19T10:59:34.675Z,8.55
2019-03-19T11:00:34.944Z,8.66
2019-03-19T11:01:34.976Z,8.6
2019-03-19T11:02:34.722Z,8.64
2019-03-19T11:03:35.004Z,8.69
2019-03-19T11:04:34.795Z,8.69
2019-03-19T11:05:34.774Z,8.66
2019-03-19T11:06:34.794Z,8.64
2019-03-19T11:07:35.077Z,8.64
2019-03-19T11:08:34.588Z,8.69
2019-03-19T11:09:35.254Z,8.74
2019-03-19T11:10:34.598Z,8.73
2019-03-19T11:11:35.147Z,8.74
2019-03-19T11:12:35.164Z,8.63
2019-03-19T11:13:34.656Z,8.79
2019-03-19T11:14:34.674Z,8.85
2019-03-19T11:15:36.070Z,8.71
2019-03-19T11:16:34.967Z,8.76
2019-03-19T11:17:35.257Z,8.78
2019-03-19T11:18:34.743Z,8.74
2019-03-19T11:19:35.024Z,8.76
2019-03-19T11:20:34.779Z,8.78
2019-03-19T11:21:35.339Z,8.87
2019-03-19T11:22:35.823Z,8.73
2019-03-19T11:23:35.095Z,8.91
2019-03-19T11:24:35.113Z,8.92
2019-03-19T11:25:35.402Z,8.91
2019-03-19T11:26:34.908Z,8.88
2019-03-19T11:27:35.266Z,8.92
2019-03-19T11:28:35.185Z,8.88
2019-03-19T11:29:35.262Z,8.94
2019-03-19T11:30:35.347Z,8.97
2019-03-19T11:31:35.036Z,9.03
2019-03-19T11:32:35.255Z,8.95
2019-03-19T11:33:35.012Z,8.95
2019-03-19T11:34:35.555Z,8.94
2019-03-19T11:35:35.324Z,8.99
2019-03-19T11:36:35.068Z,9
2019-03-19T11:37:35.604Z,9
2019-03-19T11:38:35.366Z,9
2019-03-19T11:39:35.121Z,9.02
2019-03-19T11:40:35.403Z,9.03
2019-03-19T11:41:35.679Z,8.97
2019-03-19T11:42:35.273Z,9.04
2019-03-19T11:43:35.713Z,9.04
2019-03-19T11:44:35.472Z,9.08
2019-03-19T11:45:35.752Z,9.1
2019-03-19T11:46:35.522Z,9.08
2019-03-19T11:47:35.575Z,9.1
2019-03-19T11:48:35.545Z,9.08
2019-03-19T11:49:35.569Z,9.08
2019-03-19T11:50:37.955Z,9.08
2019-03-19T11:51:35.594Z,9.08
2019-03-19T11:52:35.619Z,9.06
2019-03-19T11:53:35.899Z,9.1
2019-03-19T11:54:35.652Z,9.06
2019-03-19T11:55:35.671Z,9.03
2019-03-19T11:56:35.950Z,9.02
2019-03-19T11:57:35.982Z,9.13
2019-03-19T11:58:35.725Z,9.18
2019-03-19T11:59:35.796Z,9.11
2019-03-19T12:00:35.496Z,9.22
2019-03-19T12:01:36.056Z,9.19
2019-03-19T12:02:35.795Z,9.06
2019-03-19T12:03:35.827Z,9.19
2019-03-19T12:04:35.831Z,9.21
2019-03-19T12:05:35.852Z,9.21
2019-03-19T12:06:35.636Z,9.14
2019-03-19T12:07:36.146Z,9.19
2019-03-19T12:08:36.181Z,9.22
2019-03-19T12:09:35.918Z,9.29
2019-03-19T12:10:35.680Z,9.28
2019-03-19T12:11:35.698Z,9.22
2019-03-19T12:12:35.978Z,9.29
2019-03-19T12:13:36.005Z,9.26
2019-03-19T12:14:36.275Z,9.25
2019-03-19T12:15:36.345Z,9.28
2019-03-19T12:16:36.050Z,9.28
2019-03-19T12:17:35.804Z,9.28
2019-03-19T12:18:36.085Z,9.36
2019-03-19T12:19:36.109Z,9.37
2019-03-19T12:20:36.127Z,9.47
2019-03-19T12:21:35.876Z,9.46
2019-03-19T12:22:36.421Z,9.5
2019-03-19T12:23:36.183Z,9.47
2019-03-19T12:24:37.467Z,9.47
2019-03-19T12:25:36.510Z,9.5
2019-03-19T12:26:36.229Z,9.56
2019-03-19T12:27:36.509Z,9.62
2019-03-19T12:28:44.778Z,9.54
2019-03-19T12:29:36.283Z,9.68
2019-03-19T12:30:36.042Z,9.66
2019-03-19T12:31:36.058Z,9.74
2019-03-19T12:32:36.353Z,9.72
2019-03-19T12:33:45.164Z,9.76
2019-03-19T12:34:36.375Z,9.76
2019-03-19T12:35:36.394Z,9.82
2019-03-19T12:36:36.412Z,9.77
2019-03-19T12:37:36.432Z,9.76
2019-03-19T12:38:36.185Z,9.77
2019-03-19T12:39:36.211Z,9.77
2019-03-19T12:40:42.163Z,9.76
2019-03-19T12:41:36.820Z,9.76
2019-03-19T12:42:36.522Z,9.82
2019-03-19T12:43:36.285Z,9.8
2019-03-19T12:44:36.568Z,9.8
2019-03-19T12:45:36.580Z,9.76
2019-03-19T12:46:36.601Z,9.79
2019-03-19T12:47:36.617Z,9.68
2019-03-19T12:48:36.378Z,9.72
2019-03-19T12:49:36.651Z,9.73
2019-03-19T12:50:36.409Z,9.73
2019-03-19T12:51:36.692Z,9.69
2019-03-19T12:52:36.448Z,9.8
2019-03-19T12:53:36.746Z,9.74
2019-03-19T12:54:37.855Z,9.82
2019-03-19T12:55:37.034Z,9.77
2019-03-19T12:56:36.786Z,9.8
2019-03-19T12:57:36.535Z,9.77
2019-03-19T12:58:36.612Z,9.73
2019-03-19T12:59:36.843Z,9.72
2019-03-19T13:00:39.311Z,9.79
2019-03-19T13:01:37.381Z,9.79
2019-03-19T13:02:36.629Z,9.76
2019-03-19T13:03:37.175Z,9.89
2019-03-19T13:04:36.930Z,9.83
2019-03-19T13:05:36.948Z,9.83
2019-03-19T13:06:36.971Z,9.87
2019-03-19T13:07:36.725Z,9.98
2019-03-19T13:08:36.745Z,9.97
2019-03-19T13:09:37.290Z,10.02
2019-03-19T13:10:37.051Z,10.15
2019-03-19T13:11:36.801Z,10.04
2019-03-19T13:12:37.077Z,10.13
2019-03-19T13:13:37.357Z,10.26
2019-03-19T13:14:36.850Z,10.3
2019-03-19T13:15:37.399Z,10.4
2019-03-19T13:16:36.895Z,10.3
2019-03-19T13:17:37.430Z,10.34
2019-03-19T13:18:37.449Z,10.44
2019-03-19T13:19:36.945Z,10.35
2019-03-19T13:20:37.490Z,10.41
2019-03-19T13:21:37.517Z,10.4